Time;durP1;ratioP1;P1;durP2;ratioP2;P2;SDS_P1;SDS_P2;PMS_P1;PMS_P2;Temp;Humidity;BMP_temperature;BMP_pressure;BME280_temperature;BME280_humidity;BME280_pressure;Samples;Min_cycle;Max_cycle;Signal;HPM_P1;HPM_P2
2022/04/13 00:01:08;;;;;;;11.33;2.83;;;;;;;13.97;62.91;101002.88;5012691;28;20045;-87
2022/04/13 00:03:33;;;;;;;11.80;3.13;;;;;;;13.90;63.22;101015.81;4996683;28;20377;-87
2022/04/13 00:05:59;;;;;;;11.97;2.87;;;;;;;13.81;63.55;101009.41;5013121;28;20046;-87
2022/04/13 00:08:24;;;;;;;10.60;2.87;;;;;;;13.75;63.45;101009.41;5010622;28;21330;-87
2022/04/13 00:10:49;;;;;;;8.63;2.67;;;;;;;13.70;63.98;101011.31;5011002;28;20042;-87
2022/04/13 00:13:15;;;;;;;8.02;2.80;;;;;;;13.62;64.14;101004.59;4999422;28;20038;-88
2022/04/13 00:15:41;;;;;;;9.67;3.07;;;;;;;13.54;64.56;101005.97;5012665;28;20034;-88
2022/04/13 00:18:09;;;;;;;9.10;3.27;;;;;;;13.48;64.63;101005.19;5012149;28;20026;-86
2022/04/13 00:20:36;;;;;;;7.67;2.87;;;;;;;13.44;65.20;101014.88;5005358;28;20305;-86
2022/04/13 00:23:03;;;;;;;10.60;3.38;;;;;;;13.39;65.25;101011.38;5011646;28;20069;-86
2022/04/13 00:25:29;;;;;;;9.02;2.97;;;;;;;13.37;65.80;101010.84;5012661;28;20035;-87
2022/04/13 00:27:55;;;;;;;12.27;3.28;;;;;;;13.35;65.90;101032.63;5011850;28;20552;-87
2022/04/13 00:30:21;;;;;;;8.98;3.00;;;;;;;13.34;65.74;101022.94;5012534;28;20117;-87
2022/04/13 00:32:46;;;;;;;8.50;2.70;;;;;;;13.32;66.04;101022.41;5013419;28;20669;-86
2022/04/13 00:35:12;;;;;;;8.43;2.85;;;;;;;13.31;66.07;101028.88;5012838;28;20516;-87
2022/04/13 00:37:38;;;;;;;13.70;3.00;;;;;;;13.25;66.13;101029.94;5010596;28;20092;-87
2022/04/13 00:40:05;;;;;;;12.70;3.00;;;;;;;13.26;66.23;101032.34;5012677;28;20033;-87
2022/04/13 00:42:30;;;;;;;7.18;2.70;;;;;;;13.22;66.77;101030.50;5013746;28;20112;-86
2022/04/13 00:44:56;;;;;;;9.43;2.97;;;;;;;13.15;67.00;101033.47;5012276;28;20465;-87
2022/04/13 00:47:21;;;;;;;12.30;3.47;;;;;;;13.10;66.99;101036.13;5010629;28;20029;-87
2022/04/13 00:49:47;;;;;;;9.98;3.25;;;;;;;13.07;67.20;101034.81;5009928;28;20022;-87
2022/04/13 00:52:15;;;;;;;8.77;2.67;;;;;;;13.05;67.37;101042.34;5013265;28;20377;-87
2022/04/13 00:54:42;;;;;;;7.88;2.90;;;;;;;13.00;67.50;101043.16;5012878;28;20547;-87
2022/04/13 00:57:11;;;;;;;11.13;3.33;;;;;;;12.98;67.96;101050.69;5012541;28;20409;-87
2022/04/13 00:59:40;;;;;;;8.35;3.00;;;;;;;12.99;67.89;101059.53;5010327;28;20041;-87
2022/04/13 01:02:07;;;;;;;7.25;3.00;;;;;;;12.97;68.17;101054.44;5011332;28;20157;-87
2022/04/13 01:04:33;;;;;;;11.18;3.20;;;;;;;12.94;68.17;101059.56;5008771;28;20153;-87
2022/04/13 01:07:00;;;;;;;10.18;3.10;;;;;;;12.92;69.14;101064.41;4993463;28;20034;-87
2022/04/13 01:09:27;;;;;;;11.90;3.58;;;;;;;12.87;68.65;101057.94;5009887;28;20095;-86
2022/04/13 01:11:55;;;;;;;13.85;3.67;;;;;;;12.86;69.07;101067.06;5012759;28;20026;-86
2022/04/13 01:14:20;;;;;;;12.43;3.80;;;;;;;12.83;69.60;101072.97;5012547;28;20037;-86
2022/04/13 01:16:45;;;;;;;12.63;3.17;;;;;;;12.82;69.83;101074.03;5011022;28;20300;-87
2022/04/13 01:19:14;;;;;;;9.10;3.23;;;;;;;12.79;69.52;101074.56;5016578;22;20053;-86
2022/04/13 01:21:44;;;;;;;11.10;3.88;;;;;;;12.80;70.13;101076.19;5012537;28;20034;-87
2022/04/13 01:26:45;;;;;;;7.60;3.33;;;;;;;12.77;70.01;101079.44;5186265;22;20061;-88
2022/04/13 01:29:12;;;;;;;18.37;4.53;;;;;;;12.76;70.26;101085.88;5004351;28;20030;-90
2022/04/13 01:31:43;;;;;;;9.65;3.70;;;;;;;12.76;70.61;101096.66;5010988;28;20599;-88
2022/04/13 01:34:08;;;;;;;11.25;3.78;;;;;;;12.74;71.17;101093.41;5017694;28;20056;-89
2022/04/13 01:36:35;;;;;;;16.10;4.27;;;;;;;12.73;70.88;101106.03;5011420;28;20469;-88
2022/04/13 01:39:01;;;;;;;10.82;4.05;;;;;;;12.69;71.36;101102.25;5004216;28;20042;-88
2022/04/13 01:41:27;;;;;;;11.52;4.65;;;;;;;12.69;71.54;101106.84;5013156;28;20029;-87
2022/04/13 01:43:52;;;;;;;10.68;3.75;;;;;;;12.68;71.72;101105.22;4996235;28;20030;-87
2022/04/13 01:46:17;;;;;;;10.17;4.13;;;;;;;12.67;71.97;101108.97;5016984;28;20358;-89
2022/04/13 01:48:44;;;;;;;15.57;4.43;;;;;;;12.68;72.58;101121.34;5014231;28;20034;-88
2022/04/13 01:51:10;;;;;;;14.40;4.82;;;;;;;12.67;72.75;101115.19;5017562;28;20044;-88
2022/04/13 01:53:35;;;;;;;11.63;5.07;;;;;;;12.68;72.67;101121.34;5018070;28;20076;-87
2022/04/13 01:56:01;;;;;;;10.73;4.47;;;;;;;12.66;72.99;101121.63;5003611;28;20141;-88
2022/04/13 01:58:27;;;;;;;9.50;4.88;;;;;;;12.65;73.47;101122.69;5014264;28;20112;-88
2022/04/13 02:00:55;;;;;;;12.98;4.82;;;;;;;12.59;74.12;101126.44;5013244;28;20053;-88
2022/04/13 02:03:21;;;;;;;13.07;5.00;;;;;;;12.59;73.94;101122.94;5013940;28;20432;-88
2022/04/13 02:05:47;;;;;;;14.77;5.23;;;;;;;12.60;74.20;101124.56;5013300;28;20308;-88
2022/04/13 02:08:12;;;;;;;14.50;5.57;;;;;;;12.57;74.07;101120.50;5011606;28;20034;-88
2022/04/13 02:10:38;;;;;;;10.50;5.20;;;;;;;12.55;74.06;101126.16;5012634;28;20520;-88
2022/04/13 02:13:03;;;;;;;11.50;5.40;;;;;;;12.55;73.99;101131.53;5004957;28;20031;-87
2022/04/13 02:15:45;;;;;;;12.35;5.05;;;;;;;12.41;73.78;101114.28;5050559;22;20140;-87
2022/04/13 02:18:10;;;;;;;16.73;5.67;;;;;;;12.45;74.68;101134.16;5029514;28;20473;-87
2022/04/13 02:20:48;;;;;;;11.05;5.38;;;;;;;12.38;74.86;101131.72;5031040;28;20047;-87
2022/04/13 02:23:13;;;;;;;17.00;5.70;;;;;;;12.44;75.70;101145.97;5032061;28;20018;-87
2022/04/13 02:25:39;;;;;;;9.70;5.37;;;;;;;12.43;75.43;101141.69;5031124;28;20304;-87
2022/04/13 02:28:07;;;;;;;16.53;5.67;;;;;;;12.41;75.81;101149.22;5031123;28;20494;-87
2022/04/13 02:30:33;;;;;;;18.30;5.70;;;;;;;12.36;75.82;101149.97;5011753;28;20080;-87
2022/04/13 02:33:00;;;;;;;14.87;5.87;;;;;;;12.33;76.61;101147.03;5012941;28;20077;-86
2022/04/13 02:45:45;;;;;;;12.68;5.47;;;;;;;12.15;76.64;101153.63;5269987;22;20069;-87
2022/04/13 02:48:11;;;;;;;11.67;5.23;;;;;;;12.10;76.86;101155.25;5030935;28;20033;-86
2022/04/13 02:50:37;;;;;;;11.77;4.90;;;;;;;12.04;77.29;101160.84;5035647;28;20582;-87
2022/04/13 02:53:02;;;;;;;13.10;5.35;;;;;;;11.95;78.62;101161.28;5034188;28;20036;-87
2022/04/13 02:55:43;;;;;;;13.37;5.40;;;;;;;11.81;78.23;101146.69;5394597;22;20073;-86
2022/04/13 02:58:08;;;;;;;14.13;5.72;;;;;;;11.79;79.25;101159.56;5015564;28;20032;-87
2022/04/13 03:00:37;;;;;;;14.10;5.53;;;;;;;11.68;79.37;101158.69;5015387;28;20026;-87
2022/04/13 03:05:47;;;;;;;12.18;5.35;;;;;;;11.65;79.54;101172.63;5204120;22;20045;-87
2022/04/13 03:08:13;;;;;;;17.43;5.03;;;;;;;11.57;80.13;101175.78;5013944;28;20037;-87
2022/04/13 03:10:38;;;;;;;12.57;5.50;;;;;;;11.49;79.98;101175.16;5030810;28;20030;-88
2022/04/13 03:13:03;;;;;;;11.97;4.93;;;;;;;11.42;79.85;101168.41;5035051;28;20276;-87
2022/04/13 03:15:29;;;;;;;14.73;5.70;;;;;;;11.32;80.60;101167.22;5032993;28;20057;-86
2022/04/13 03:17:54;;;;;;;12.87;5.20;;;;;;;11.23;80.65;101163.41;5014580;28;20059;-87
2022/04/13 03:20:19;;;;;;;10.23;5.18;;;;;;;11.10;81.32;101169.19;5013516;28;20069;-87
2022/04/13 03:22:45;;;;;;;10.63;4.60;;;;;;;11.00;81.85;101165.31;5016053;28;20073;-86
2022/04/13 03:25:11;;;;;;;12.00;5.18;;;;;;;10.95;81.73;101167.97;5015176;28;20056;-87
2022/04/13 03:27:40;;;;;;;10.40;5.40;;;;;;;10.84;81.85;101168.91;5016343;28;20533;-87
2022/04/13 03:30:06;;;;;;;10.93;4.97;;;;;;;10.73;82.87;101158.06;5015459;28;20026;-87
2022/04/13 03:32:38;;;;;;;14.57;5.25;;;;;;;10.67;82.62;101156.38;5019050;28;20026;-88
2022/04/13 03:35:07;;;;;;;12.18;5.43;;;;;;;10.62;82.63;101159.00;5015155;28;20045;-87
2022/04/13 03:37:33;;;;;;;12.55;5.38;;;;;;;10.54;82.71;101154.88;5023085;22;20794;-87
2022/04/13 03:40:16;;;;;;;13.33;5.00;;;;;;;10.42;82.39;101138.94;5016727;28;20030;-87
2022/04/13 03:42:42;;;;;;;15.45;5.25;;;;;;;10.41;83.66;101160.63;5022420;28;20030;-87
2022/04/13 03:45:13;;;;;;;11.50;5.15;;;;;;;10.40;83.65;101170.53;5022642;28;20481;-87
2022/04/13 03:47:40;;;;;;;8.87;4.90;;;;;;;10.32;84.20;101170.91;5021836;28;20049;-87
2022/04/13 03:50:08;;;;;;;14.70;5.68;;;;;;;10.27;84.61;101173.53;5020264;28;20022;-88
2022/04/13 03:52:37;;;;;;;10.63;4.97;;;;;;;10.21;84.66;101169.16;5021361;28;20034;-87
2022/04/13 03:55:05;;;;;;;12.50;5.00;;;;;;;10.13;86.00;101170.41;5022363;28;20060;-88
2022/04/13 03:57:31;;;;;;;12.70;5.63;;;;;;;10.09;86.03;101177.31;5020258;28;20469;-88
2022/04/13 03:59:56;;;;;;;11.70;5.40;;;;;;;10.05;86.27;101176.97;5006150;28;20482;-87
2022/04/13 04:02:24;;;;;;;10.80;5.37;;;;;;;10.02;86.81;101179.31;4997038;28;20029;-87
2022/04/13 04:04:49;;;;;;;11.75;5.57;;;;;;;10.00;86.26;101184.94;4996109;28;20354;-87
2022/04/13 04:07:15;;;;;;;17.47;5.80;;;;;;;9.94;86.58;101186.72;4998591;28;20066;-88
2022/04/13 04:09:40;;;;;;;9.80;4.80;;;;;;;9.88;86.66;101187.69;5016332;28;20022;-88
2022/04/13 04:12:06;;;;;;;8.93;5.10;;;;;;;9.88;86.61;101192.22;5024558;28;20052;-87
2022/04/13 04:14:32;;;;;;;9.45;5.28;;;;;;;9.85;87.58;101199.72;5020723;28;20212;-87
2022/04/13 04:16:57;;;;;;;15.80;5.40;;;;;;;9.83;86.67;101207.16;5022407;28;20072;-87
2022/04/13 04:19:22;;;;;;;13.97;5.43;;;;;;;9.80;87.25;101210.34;5022184;28;20030;-88
2022/04/13 04:21:48;;;;;;;13.30;5.40;;;;;;;9.74;86.94;101207.81;5022675;28;20026;-87
2022/04/13 04:24:13;;;;;;;11.47;4.87;;;;;;;9.73;87.53;101212.34;5019177;28;20300;-88
2022/04/13 04:26:38;;;;;;;14.20;4.97;;;;;;;9.67;87.96;101210.66;5017302;28;20049;-86
2022/04/13 04:29:04;;;;;;;14.73;5.80;;;;;;;9.68;87.11;101217.59;5017692;28;20068;-87
2022/04/13 04:34:13;;;;;;;11.15;5.78;;;;;;;9.59;87.88;101222.53;5023164;28;20084;-88
2022/04/13 04:36:39;;;;;;;11.05;5.30;;;;;;;9.55;87.51;101219.53;5023579;28;20234;-89
2022/04/13 04:39:05;;;;;;;13.23;5.43;;;;;;;9.53;87.50;101213.63;5019687;28;20060;-88
2022/04/13 04:41:30;;;;;;;12.25;6.45;;;;;;;9.59;88.90;101229.78;5022619;28;20039;-87
2022/04/13 04:43:55;;;;;;;15.83;6.57;;;;;;;9.61;89.50;101236.50;5023058;28;20029;-88
2022/04/13 04:46:22;;;;;;;15.93;6.40;;;;;;;9.67;88.88;101235.53;5021890;28;20038;-87
2022/04/13 04:48:47;;;;;;;14.77;6.25;;;;;;;9.72;88.45;101240.16;5016414;28;20018;-87
2022/04/13 04:51:12;;;;;;;14.93;6.90;;;;;;;9.81;88.26;101244.06;5022878;28;20034;-87
2022/04/13 04:56:06;;;;;;;16.80;5.70;;;;;;;9.96;87.85;101253.41;5020992;28;20057;-87
2022/04/13 04:58:31;;;;;;;13.82;6.10;;;;;;;10.02;87.24;101252.44;5025699;28;20616;-90
2022/04/13 05:00:56;;;;;;;14.97;6.27;;;;;;;10.07;87.10;101262.41;5024093;28;20025;-87
2022/04/13 05:03:22;;;;;;;17.97;6.40;;;;;;;10.09;87.95;101263.78;5027588;28;20038;-88
2022/04/13 05:05:47;;;;;;;13.17;6.63;;;;;;;10.11;87.19;101267.03;5029218;28;20025;-86
2022/04/13 05:08:15;;;;;;;18.00;6.97;;;;;;;10.11;87.18;101261.69;5026522;28;20045;-87
2022/04/13 05:58:08;;;;;;;25.90;9.70;;;;;;;12.38;82.29;101327.09;5205430;22;20053;-96
2022/04/13 06:09:18;;;;;;;21.73;11.53;;;;;;;12.97;80.94;101344.94;4872620;22;16665425;-92
2022/04/13 06:11:50;;;;;;;31.90;12.13;;;;;;;12.97;81.02;101338.72;4999609;28;20030;-94
2022/04/13 06:16:49;;;;;;;21.42;11.88;;;;;;;13.08;79.38;101337.72;4996531;28;20046;-93
2022/04/13 06:19:14;;;;;;;26.00;12.93;;;;;;;13.15;79.96;101345.56;4996410;28;20511;-94
2022/04/13 06:24:36;;;;;;;34.25;13.52;;;;;;;13.32;80.28;101361.53;5087736;22;20076;-96
2022/04/13 06:27:33;;;;;;;25.83;13.30;;;;;;;13.32;80.04;101351.56;5042265;28;20022;-95
2022/04/13 06:30:37;;;;;;;29.60;12.75;;;;;;;13.51;80.23;101364.56;5018683;28;20030;-96
2022/04/13 06:33:37;;;;;;;26.58;13.55;;;;;;;13.59;79.55;101355.16;5209064;22;20061;-95
2022/04/13 06:36:46;;;;;;;27.83;13.95;;;;;;;13.66;79.65;101354.91;5005100;28;20255;-94
2022/04/13 06:39:12;;;;;;;28.30;14.00;;;;;;;13.61;79.90;101350.31;5167544;22;20058;-92
2022/04/13 06:56:18;;;;;;;;;;;;;;;;;;;;;
2022/04/13 06:58:50;;;;;;;29.23;14.18;;;;;;;13.77;79.93;101394.28;4991635;28;20103;-94
2022/04/13 07:01:15;;;;;;;29.73;14.77;;;;;;;13.76;80.05;101387.28;4974758;28;20038;-93
2022/04/13 07:06:51;;;;;;;27.55;14.10;;;;;;;14.07;78.65;101406.97;5723466;22;20107;-94
2022/04/13 07:09:19;;;;;;;25.13;14.32;;;;;;;14.12;79.27;101386.50;5012577;28;20034;-95
2022/04/13 07:14:36;;;;;;;23.80;13.52;;;;;;;14.47;77.86;101398.38;5669522;22;20064;-94
2022/04/13 07:17:20;;;;;;;27.25;13.43;;;;;;;14.66;77.04;101410.25;5085825;22;20045;-96
2022/04/13 07:40:13;;;;;;;26.98;14.65;;;;;;;15.06;76.17;101450.16;5198173;22;20056;-96
2022/04/13 07:43:10;;;;;;;29.05;15.20;;;;;;;15.27;75.39;101459.84;5032913;28;20034;-95
2022/04/13 07:45:39;;;;;;;30.27;15.77;;;;;;;15.38;73.74;101441.72;4997118;28;20038;-95
2022/04/13 08:00:45;;;;;;;28.13;14.90;;;;;;;16.11;72.46;101461.09;5681738;22;20702;-91
2022/04/13 08:10:15;;;;;;;25.30;14.37;;;;;;;16.42;70.28;101473.63;5022802;22;20301;-91
2022/04/13 08:12:40;;;;;;;30.90;15.23;;;;;;;16.50;70.68;101486.56;5035903;28;20786;-93
2022/04/13 08:47:43;;;;;;;18.50;10.37;;;;;;;17.46;67.99;101516.84;5014010;28;20129;-89
2022/04/13 08:53:48;;;;;;;20.10;10.50;;;;;;;17.68;65.94;101519.84;5890467;22;20068;-89
2022/04/13 08:56:18;;;;;;;19.90;10.75;;;;;;;17.56;65.00;101509.44;5032693;28;20625;-91
2022/04/13 08:59:08;;;;;;;19.58;10.90;;;;;;;17.75;65.72;101526.81;5031788;28;20033;-91
2022/04/13 09:06:45;;;;;;;19.13;11.18;;;;;;;18.78;62.87;101533.56;5037989;22;20664;-89
2022/04/13 09:12:51;;;;;;;19.05;11.65;;;;;;;19.41;61.03;101508.88;5014409;28;20066;-93
2022/04/13 09:15:44;;;;;;;20.17;10.43;;;;;;;19.61;61.18;101526.69;5012635;28;20029;-90
2022/04/13 09:26:39;;;;;;;15.18;9.48;;;;;;;19.91;59.04;101548.94;5633474;22;20049;-89
2022/04/13 09:39:59;;;;;;;20.35;10.00;;;;;;;20.70;55.70;101555.09;5001157;28;20034;-88
2022/04/13 09:45:11;;;;;;;15.93;9.97;;;;;;;20.24;55.34;101570.56;5040308;22;20528;-93
2022/04/13 09:53:43;;;;;;;18.27;9.85;;;;;;;19.46;59.24;101576.69;5289377;22;20069;-93
2022/04/13 09:56:16;;;;;;;19.80;10.45;;;;;;;19.27;58.65;101561.25;5013031;28;20439;-92
2022/04/13 09:58:42;;;;;;;17.17;9.80;;;;;;;19.12;58.96;101569.69;5015359;28;20109;-94
2022/04/13 10:01:08;;;;;;;13.57;9.83;;;;;;;18.97;59.30;101576.19;5022682;28;20076;-92
2022/04/13 10:16:51;;;;;;;18.07;11.63;;;;;;;18.13;62.73;101573.00;5037688;28;20319;-93
2022/04/13 10:20:10;;;;;;;22.02;11.18;;;;;;;18.14;62.90;101580.88;5037378;28;20032;-94
2022/04/13 10:26:49;;;;;;;;;;;;;;;;;;;;;
2022/04/13 10:35:20;;;;;;;18.98;11.02;;;;;;;18.05;63.26;101582.59;5405471;22;20073;-93
2022/04/13 10:38:49;;;;;;;16.35;10.55;;;;;;;17.85;64.22;101565.44;5037836;28;20496;-91
2022/04/13 10:41:21;;;;;;;17.42;11.10;;;;;;;17.77;65.07;101576.13;4999030;22;20049;-91
2022/04/13 10:44:07;;;;;;;22.23;10.93;;;;;;;17.75;65.55;101576.41;5021161;28;20075;-92
2022/04/13 10:46:48;;;;;;;16.27;11.33;;;;;;;17.58;67.36;101587.69;5013119;28;20297;-91
2022/04/13 10:49:43;;;;;;;21.25;12.88;;;;;;;17.59;66.36;101594.72;5011450;28;20029;-92
2022/04/13 10:55:09;;;;;;;23.33;13.05;;;;;;;17.43;67.98;101588.69;5028256;22;20552;-92
2022/04/13 10:58:18;;;;;;;18.38;12.73;;;;;;;17.40;68.59;101581.91;4992910;28;20077;-92
2022/04/13 11:00:49;;;;;;;18.17;13.05;;;;;;;17.38;68.74;101599.56;5014080;23;20481;-92
2022/04/13 11:03:36;;;;;;;23.42;13.55;;;;;;;17.38;68.17;101605.78;4990961;28;20034;-92
2022/04/13 11:06:15;;;;;;;23.63;14.30;;;;;;;17.22;68.75;101599.69;4994808;28;20034;-89
2022/04/13 11:25:33;;;;;;;21.05;14.48;;;;;;;17.40;68.34;101605.50;4859851;22;20068;-96
2022/04/13 11:32:06;;;;;;;24.60;15.38;;;;;;;17.40;68.32;101616.34;5043494;28;20069;-96
2022/04/13 11:35:05;;;;;;;26.15;16.15;;;;;;;17.31;68.92;101610.72;5032647;28;20029;-96
2022/04/13 11:37:36;;;;;;;27.45;16.45;;;;;;;17.34;69.96;101622.88;5014515;28;20038;-96
2022/04/13 11:40:34;;;;;;;28.73;16.60;;;;;;;17.22;70.13;101604.28;5025971;28;20034;-96
2022/04/13 11:44:06;;;;;;;26.80;17.33;;;;;;;17.33;69.32;101630.22;4992570;28;20299;-96
2022/04/13 11:49:11;;;;;;;26.90;18.73;;;;;;;17.29;69.30;101621.03;4802261;26;20045;-96
2022/04/13 11:51:37;;;;;;;26.35;18.48;;;;;;;17.24;71.37;101643.56;5029417;28;20026;-96
2022/04/13 11:54:13;;;;;;;28.27;20.05;;;;;;;17.01;72.49;101628.81;5020751;28;20065;-95
2022/04/13 11:56:41;;;;;;;32.08;20.23;;;;;;;16.81;72.73;101644.06;5038412;28;20036;-96
2022/04/13 12:17:57;;;;;;;;;;;;;;;;;;;;;
2022/04/13 12:28:34;;;;;;;;;;;;;;;;;;;;;
2022/04/13 12:36:22;;;;;;;28.83;19.42;;;;;;;19.12;62.59;101656.59;5547900;22;20037;-96
2022/04/13 12:39:13;;;;;;;27.63;19.58;;;;;;;19.38;63.08;101654.28;5058548;28;20006;-96
2022/04/13 12:41:39;;;;;;;28.92;19.58;;;;;;;19.47;60.25;101647.06;5039858;28;20041;-96
2022/04/13 12:44:11;;;;;;;30.08;19.08;;;;;;;19.68;60.19;101635.81;5042107;28;20052;-96
2022/04/13 12:46:45;;;;;;;29.95;19.27;;;;;;;19.90;60.09;101653.41;5055129;28;20159;-96
2022/04/13 12:49:22;;;;;;;33.20;19.60;;;;;;;19.86;59.69;101638.75;5055569;28;20034;-96
2022/04/13 12:52:13;;;;;;;30.65;19.85;;;;;;;19.71;59.64;101640.66;5067370;28;20086;-96
2022/04/13 12:55:12;;;;;;;30.70;19.20;;;;;;;19.50;59.86;101645.66;5063816;28;20025;-96
2022/04/13 12:57:43;;;;;;;29.43;18.70;;;;;;;19.55;60.49;101653.72;5021068;28;20287;-94
2022/04/13 13:04:25;;;;;;;30.95;17.52;;;;;;;19.17;61.42;101668.19;5023068;28;20052;-94
2022/04/13 13:07:27;;;;;;;30.25;16.77;;;;;;;18.92;61.84;101661.22;5031870;28;20037;-91
2022/04/13 13:09:55;;;;;;;32.33;18.00;;;;;;;18.42;63.25;101664.34;5558881;23;21346;-92
2022/04/13 13:12:21;;;;;;;26.98;17.33;;;;;;;17.99;67.31;101663.19;5032649;28;20044;-91
2022/04/13 13:14:51;;;;;;;27.13;17.80;;;;;;;17.60;69.26;101661.38;5024753;28;20057;-92
2022/04/13 13:17:24;;;;;;;28.23;18.23;;;;;;;17.16;71.79;101659.59;5008943;28;20026;-94
2022/04/13 13:19:51;;;;;;;33.50;19.17;;;;;;;16.93;74.15;101656.47;5007591;28;20037;-95
2022/04/13 13:22:26;;;;;;;34.23;17.87;;;;;;;16.67;71.98;101667.44;5013117;28;20105;-93
2022/04/13 13:25:02;;;;;;;27.37;17.17;;;;;;;16.59;77.29;101666.13;5012241;28;20281;-95
2022/04/13 13:27:33;;;;;;;31.13;17.95;;;;;;;16.45;75.69;101671.31;5019133;28;20030;-96
2022/04/13 13:30:09;;;;;;;32.80;18.10;;;;;;;16.35;77.61;101680.28;5034773;28;20046;-95
2022/04/13 13:32:41;;;;;;;29.98;18.20;;;;;;;16.16;78.62;101677.38;5031324;28;20014;-94
2022/04/13 13:35:13;;;;;;;30.48;17.50;;;;;;;15.91;78.66;101691.75;5017146;28;20026;-94
2022/04/13 13:37:51;;;;;;;32.67;19.38;;;;;;;15.77;80.58;101690.66;5022862;28;20029;-93
2022/04/13 13:40:36;;;;;;;31.30;18.40;;;;;;;15.59;81.05;101690.16;5026837;28;20025;-93
2022/04/13 13:43:35;;;;;;;28.60;17.92;;;;;;;15.54;81.14;101698.25;5011261;28;20045;-92
2022/04/13 13:46:13;;;;;;;32.75;17.80;;;;;;;15.46;82.84;101694.19;5008694;28;20104;-92
2022/04/13 13:48:38;;;;;;;29.00;18.07;;;;;;;15.39;85.68;101699.03;5007434;28;20013;-92
2022/04/13 13:51:03;;;;;;;30.50;17.90;;;;;;;15.31;85.37;101694.97;5015349;28;20293;-93
2022/04/13 13:53:29;;;;;;;28.53;17.17;;;;;;;15.31;84.15;101694.19;4993929;28;20382;-91
2022/04/13 13:55:54;;;;;;;30.73;17.63;;;;;;;15.36;87.80;101699.56;4996796;28;20026;-92
2022/04/13 13:58:20;;;;;;;27.10;16.63;;;;;;;15.43;86.49;101692.03;5014260;28;20057;-92
2022/04/13 14:00:46;;;;;;;28.17;16.73;;;;;;;15.55;85.45;101692.56;5013926;28;20034;-91
2022/04/13 14:03:15;;;;;;;28.40;16.70;;;;;;;15.60;86.46;101686.38;5012622;28;20503;-90
2022/04/13 14:05:42;;;;;;;28.02;16.40;;;;;;;15.73;88.60;101674.19;5000734;28;20034;-91
2022/04/13 14:08:12;;;;;;;26.40;15.80;;;;;;;15.91;87.83;101683.66;4994136;28;20118;-95
2022/04/13 14:10:39;;;;;;;26.23;15.50;;;;;;;15.89;85.29;101693.91;5000277;28;20029;-94
2022/04/13 14:13:06;;;;;;;31.95;15.95;;;;;;;15.92;85.37;101689.84;5013948;28;20034;-91
2022/04/13 14:15:32;;;;;;;25.60;16.02;;;;;;;16.07;82.79;101687.13;5011826;28;20511;-93
2022/04/13 14:17:58;;;;;;;27.15;15.73;;;;;;;16.15;82.13;101689.28;5013204;28;20556;-91
2022/04/13 14:20:23;;;;;;;27.23;16.33;;;;;;;16.16;80.72;101687.38;5013927;28;20129;-91
2022/04/13 14:22:51;;;;;;;24.67;15.33;;;;;;;16.19;80.74;101684.94;5006866;28;20073;-94
2022/04/13 14:25:18;;;;;;;27.65;16.00;;;;;;;16.27;82.27;101688.16;5014127;28;20026;-95
2022/04/13 14:27:44;;;;;;;26.88;15.95;;;;;;;16.30;80.86;101684.91;5002310;28;20033;-96
2022/04/13 14:30:10;;;;;;;25.58;17.52;;;;;;;16.32;80.90;101685.44;5004722;28;20053;-96
2022/04/13 14:32:37;;;;;;;27.80;16.53;;;;;;;16.30;81.04;101677.59;5013184;28;20025;-96
2022/04/13 14:35:07;;;;;;;25.63;16.30;;;;;;;16.27;80.72;101685.44;5015072;28;20495;-96
2022/04/13 14:40:10;;;;;;;30.10;16.98;;;;;;;16.09;83.81;101670.63;5780173;22;20057;-95
2022/04/13 14:45:51;;;;;;;26.63;17.42;;;;;;;16.31;83.79;101662.19;5041196;28;20106;-94
2022/04/13 14:48:23;;;;;;;32.55;19.23;;;;;;;16.61;81.66;101657.75;5043125;28;20026;-93
2022/04/13 14:50:48;;;;;;;32.45;19.38;;;;;;;16.82;83.45;101658.44;5041714;28;20021;-95
2022/04/13 14:54:08;;;;;;;32.97;19.17;;;;;;;16.79;83.40;101670.63;5039802;28;20112;-96
2022/04/13 14:56:34;;;;;;;34.47;19.90;;;;;;;16.63;85.68;101663.66;5041973;28;20064;-95
2022/04/13 14:59:16;;;;;;;34.03;19.83;;;;;;;16.55;84.51;101662.34;5040160;28;20101;-95
2022/04/13 15:01:41;;;;;;;32.83;20.60;;;;;;;16.60;83.62;101662.31;5016752;28;20105;-90
2022/04/13 15:04:21;;;;;;;30.17;19.87;;;;;;;16.69;83.02;101659.06;5162547;22;20073;-89
2022/04/13 15:07:19;;;;;;;34.85;20.45;;;;;;;16.90;81.05;101678.69;5040170;28;20037;-88
2022/04/13 15:09:45;;;;;;;30.50;19.90;;;;;;;16.92;81.23;101685.41;5078388;23;20469;-88
2022/04/13 15:12:10;;;;;;;36.97;21.40;;;;;;;16.87;81.71;101682.75;5052463;28;20116;-88
2022/04/13 15:14:48;;;;;;;32.42;21.00;;;;;;;16.70;81.34;101676.91;5042091;28;20056;-89
2022/04/13 15:17:38;;;;;;;32.80;21.53;;;;;;;16.37;82.15;101690.84;5033290;28;20026;-88
2022/04/13 15:20:07;;;;;;;37.20;22.00;;;;;;;16.04;84.22;101674.97;5022915;28;20030;-88
2022/04/13 15:22:39;;;;;;;36.33;21.05;;;;;;;15.90;84.59;101680.13;5017965;28;20026;-89
2022/04/13 15:25:10;;;;;;;35.63;21.75;;;;;;;15.85;85.04;101687.41;5020948;28;20745;-89
2022/04/13 15:30:23;;;;;;;33.53;21.30;;;;;;;15.90;86.92;101688.22;5063354;22;20320;-88
2022/04/13 15:36:18;;;;;;;30.90;19.42;;;;;;;15.93;84.28;101688.78;5036804;28;20038;-91
2022/04/13 15:39:39;;;;;;;30.40;20.75;;;;;;;15.89;84.78;101692.00;5030339;28;20056;-90
2022/04/13 15:42:20;;;;;;;29.10;18.57;;;;;;;15.81;84.22;101680.91;5004826;28;20069;-91
2022/04/13 15:44:45;;;;;;;33.47;20.87;;;;;;;15.79;85.18;101686.59;5016563;28;20644;-91
2022/04/13 16:00:23;;;;;;;29.08;20.63;;;;;;;15.65;85.15;101682.84;5407381;22;20061;-89
2022/04/13 16:02:50;;;;;;;30.30;20.10;;;;;;;15.70;84.44;101686.34;5015828;28;20033;-94
2022/04/13 16:05:18;;;;;;;34.63;21.73;;;;;;;15.66;85.83;101673.66;5132695;22;20430;-95
2022/04/13 16:10:43;;;;;;;32.88;20.58;;;;;;;15.77;85.05;101683.38;5019373;28;20033;-94
2022/04/13 16:13:10;;;;;;;36.42;22.88;;;;;;;15.77;85.92;101693.38;5017461;28;20107;-94
2022/04/13 16:15:37;;;;;;;30.35;21.65;;;;;;;15.88;84.22;101701.22;5018136;28;20026;-92
2022/04/13 16:20:41;;;;;;;35.85;22.63;;;;;;;16.01;84.60;101702.53;6019951;22;20054;-93
2022/04/13 16:23:46;;;;;;;33.90;22.30;;;;;;;16.05;84.79;101705.53;5037538;28;20025;-92
2022/04/13 16:32:07;;;;;;;34.45;23.25;;;;;;;15.98;84.95;101702.28;5037917;22;20481;-92
2022/04/13 16:34:33;;;;;;;38.58;23.88;;;;;;;15.92;84.05;101697.97;5038448;28;20056;-91
2022/04/13 16:40:07;;;;;;;35.83;23.25;;;;;;;15.74;84.75;101705.50;5553536;22;20159;-90
2022/04/13 16:45:09;;;;;;;37.10;23.88;;;;;;;15.59;85.81;101709.06;5511092;22;20084;-89
2022/04/13 16:47:34;;;;;;;34.97;23.15;;;;;;;15.63;85.88;101712.00;5027223;28;20037;-90
2022/04/13 16:50:37;;;;;;;38.30;24.10;;;;;;;15.71;84.84;101716.84;5185974;22;20046;-92
2022/04/13 16:53:12;;;;;;;38.63;24.05;;;;;;;15.65;85.14;101704.47;5041656;28;20671;-91
2022/04/13 16:55:47;;;;;;;40.55;24.95;;;;;;;15.63;84.96;101706.63;5045592;28;20105;-89
2022/04/13 17:18:41;;;;;;;37.33;24.35;;;;;;;15.33;84.79;101727.13;4989237;28;20049;-86
2022/04/13 17:21:07;;;;;;;39.33;24.92;;;;;;;15.28;84.82;101733.31;4996195;28;20390;-93
2022/04/13 17:23:34;;;;;;;36.78;24.88;;;;;;;15.17;85.19;101735.19;4980707;28;20027;-94
2022/04/13 17:26:08;;;;;;;39.10;25.40;;;;;;;15.07;86.07;101727.06;4998848;28;20089;-96
2022/04/13 17:28:36;;;;;;;43.43;25.67;;;;;;;15.08;86.37;101734.88;4996319;28;20281;-93
2022/04/13 17:31:19;;;;;;;42.63;26.02;;;;;;;14.97;86.77;101731.34;4998673;28;20488;-96
2022/04/13 17:33:48;;;;;;;42.35;27.35;;;;;;;14.89;87.19;101734.56;4995817;28;20026;-95
2022/04/13 17:36:47;;;;;;;42.17;26.88;;;;;;;14.78;88.38;101730.22;5000259;28;20038;-95
2022/04/13 17:39:38;;;;;;;43.53;27.92;;;;;;;14.61;88.50;101736.56;5415241;22;20077;-96
2022/04/13 17:42:03;;;;;;;44.58;27.85;;;;;;;14.48;89.13;101723.56;5016456;28;20026;-91
2022/04/13 17:44:32;;;;;;;45.77;29.43;;;;;;;14.34;90.33;101728.63;5019371;28;20109;-95